createdAt,value
2019-04-23T00:01:56.890Z,60.30
2019-04-23T00:04:20.131Z,60.80
2019-04-23T00:07:03.500Z,61.20
2019-04-23T00:11:51.843Z,61.80
2019-04-23T00:14:32.099Z,62.40
2019-04-23T00:17:15.024Z,62.50
2019-04-23T00:19:27.605Z,63.10
2019-04-23T00:22:11.023Z,63.50
2019-04-23T00:25:21.894Z,63.90
2019-04-23T00:29:52.351Z,64.80
2019-04-23T00:32:26.740Z,65.20
2019-04-23T00:37:25.449Z,66.00
2019-04-23T00:42:23.520Z,66.90
2019-04-23T00:44:51.519Z,67.50
2019-04-23T00:47:22.241Z,67.90
2019-04-23T00:49:53.287Z,68.40
2019-04-23T00:52:20.451Z,68.70
2019-04-23T00:54:57.047Z,69.10
2019-04-23T00:57:27.186Z,69.70
2019-04-23T01:00:15.568Z,70.10
2019-04-23T01:02:23.737Z,70.50
2019-04-23T01:04:59.734Z,71.60
2019-04-23T01:07:18.896Z,72.30
2019-04-23T01:09:59.826Z,72.90
2019-04-23T01:12:31.274Z,73.40
2019-04-23T01:14:56.281Z,74.20
2019-04-23T01:19:54.803Z,76.20
2019-04-23T01:22:08.462Z,77.60
2019-04-23T01:24:40.822Z,78.50
2019-04-23T01:32:59.414Z,82.70
2019-04-23T01:35:17.486Z,83.40
2019-04-23T01:37:44.692Z,84.80
2019-04-23T01:45:20.359Z,88.90
2019-04-23T01:47:47.229Z,90.30
2019-04-23T01:52:56.123Z,92.00
2019-04-23T01:55:19.878Z,92.60
2019-04-23T02:02:49.609Z,95.00
2019-04-23T02:05:23.303Z,96.10
2019-04-23T02:08:03.552Z,97.00
2019-04-23T02:10:22.137Z,97.50
2019-04-23T02:15:17.016Z,98.70
2019-04-23T02:17:52.132Z,99.30
2019-04-23T02:20:23.648Z,99.80
2019-04-23T02:23:09.806Z,99.70
2019-04-23T02:28:07.570Z,99.90
2019-04-23T02:30:51.523Z,99.90
2019-04-23T02:35:50.644Z,99.90
2019-04-23T02:38:22.901Z,99.90
2019-04-23T02:43:13.075Z,99.90
2019-04-23T02:45:48.042Z,99.90
2019-04-23T02:53:55.632Z,99.90
2019-04-23T02:58:21.792Z,99.90
2019-04-23T03:08:20.349Z,99.90
2019-04-23T03:10:55.623Z,99.90
2019-04-23T03:13:28.741Z,99.90
2019-04-23T03:21:25.427Z,99.90
2019-04-23T03:24:13.438Z,99.90
2019-04-23T03:39:30.075Z,99.90
2019-04-23T03:41:54.500Z,99.90
2019-04-23T03:44:29.891Z,99.90
2019-04-23T03:46:51.896Z,99.90
2019-04-23T03:49:22.173Z,99.90
2019-04-23T03:54:31.994Z,99.90
2019-04-23T04:07:08.489Z,99.90
2019-04-23T04:11:57.090Z,99.90
2019-04-23T04:19:32.400Z,99.90
2019-04-23T04:22:00.159Z,99.90
2019-04-23T04:24:41.803Z,99.90
2019-04-23T04:27:05.655Z,99.90
2019-04-23T04:29:39.728Z,99.90
2019-04-23T04:32:06.479Z,99.90
2019-04-23T04:37:27.283Z,99.90
2019-04-23T04:39:34.049Z,99.90
2019-04-23T04:47:05.378Z,99.90
2019-04-23T04:52:11.730Z,99.90
2019-04-23T04:54:22.994Z,99.90
2019-04-23T04:57:00.373Z,99.90
2019-04-23T04:59:58.707Z,99.90
2019-04-23T05:02:11.681Z,99.90
2019-04-23T05:04:38.078Z,99.90
2019-04-23T05:09:40.778Z,99.90
2019-04-23T05:12:21.999Z,99.90
2019-04-23T05:14:33.607Z,99.90
2019-04-23T05:17:13.486Z,99.90
2019-04-23T05:19:43.856Z,99.90
2019-04-23T05:22:06.534Z,99.90
2019-04-23T05:24:35.305Z,99.90
2019-04-23T05:27:02.474Z,99.90
2019-04-23T05:29:39.113Z,99.90
2019-04-23T05:32:07.481Z,99.90
2019-04-23T05:34:35.405Z,99.90
2019-04-23T05:37:14.800Z,99.90
2019-04-23T05:39:39.857Z,99.90
2019-04-23T05:42:06.632Z,99.90
2019-04-23T05:44:38.692Z,99.90
2019-04-23T05:49:41.245Z,99.90
2019-04-23T05:52:24.456Z,99.90
2019-04-23T05:54:43.334Z,99.90
2019-04-23T05:57:06.958Z,99.90
2019-04-23T05:59:40.093Z,99.90
2019-04-23T06:02:06.725Z,99.90
2019-04-23T06:04:47.388Z,99.90
2019-04-23T06:07:25.105Z,99.90
2019-04-23T06:09:41.210Z,99.90
2019-04-23T06:19:36.772Z,99.90
2019-04-23T06:22:20.530Z,99.90
2019-04-23T06:24:46.751Z,99.90
2019-04-23T06:27:16.610Z,99.90
2019-04-23T06:29:39.750Z,99.90
2019-04-23T06:32:25.924Z,99.90
2019-04-23T06:34:45.554Z,99.90
2019-04-23T06:37:09.677Z,99.90
2019-04-23T06:39:42.837Z,99.90
2019-04-23T06:42:14.141Z,99.90
2019-04-23T06:44:51.020Z,99.90
2019-04-23T06:47:12.678Z,99.90
2019-04-23T06:49:53.959Z,99.90
2019-04-23T06:52:18.697Z,99.90
2019-04-23T06:54:54.347Z,99.90
2019-04-23T06:57:22.302Z,99.90
2019-04-23T06:59:48.430Z,99.90
2019-04-23T07:02:18.751Z,99.90
2019-04-23T07:04:57.187Z,99.90
2019-04-23T07:09:54.629Z,99.80
2019-04-23T07:12:21.855Z,99.90
2019-04-23T07:17:18.187Z,98.70
2019-04-23T07:22:21.584Z,98.40
2019-04-23T07:24:54.503Z,98.90
2019-04-23T07:30:03.215Z,98.50
2019-04-23T07:32:22.910Z,98.90
2019-04-23T07:35:00.960Z,99.40
2019-04-23T07:37:27.222Z,98.50
2019-04-23T07:42:55.133Z,97.60
2019-04-23T07:45:30.939Z,97.80
2019-04-23T07:48:16.415Z,97.10
2019-04-23T08:00:45.217Z,95.20
2019-04-23T08:05:44.078Z,95.40
2019-04-23T08:08:11.687Z,95.10
2019-04-23T08:11:11.150Z,94.60
2019-04-23T08:13:28.347Z,94.80
2019-04-23T08:15:49.833Z,94.20
2019-04-23T08:18:32.634Z,94.80
2019-04-23T08:20:55.720Z,92.90
2019-04-23T08:23:26.132Z,93.70
2019-04-23T08:26:23.382Z,91.60
2019-04-23T08:28:52.082Z,92.20
2019-04-23T08:31:14.171Z,92.40
2019-04-23T08:33:49.839Z,91.90
2019-04-23T08:38:44.932Z,91.50
2019-04-23T08:44:05.563Z,90.70
2019-04-23T08:47:06.845Z,91.00
2019-04-23T08:49:40.399Z,91.40
2019-04-23T08:52:07.104Z,90.40
2019-04-23T08:59:38.968Z,89.60
2019-04-23T09:04:45.586Z,88.60
2019-04-23T09:07:11.322Z,86.70
2019-04-23T09:12:08.283Z,84.60
2019-04-23T09:14:42.132Z,85.00
2019-04-23T09:17:11.022Z,84.90
2019-04-23T09:19:42.271Z,83.90
2019-04-23T09:22:14.585Z,82.60
2019-04-23T09:24:43.182Z,83.10
2019-04-23T09:27:18.029Z,84.10
2019-04-23T09:29:49.162Z,82.20
2019-04-23T09:35:05.923Z,81.90
2019-04-23T09:37:48.419Z,79.70
2019-04-23T09:40:45.169Z,79.90
2019-04-23T09:43:08.914Z,79.20
2019-04-23T09:45:48.454Z,79.60
2019-04-23T09:48:13.117Z,80.10
2019-04-23T09:50:48.962Z,78.90
2019-04-23T09:55:43.694Z,77.60
2019-04-23T10:00:46.950Z,76.90
2019-04-23T10:03:09.273Z,77.40
2019-04-23T10:05:33.594Z,74.80
2019-04-23T10:08:02.959Z,73.00
2019-04-23T10:10:25.992Z,73.60
2019-04-23T10:12:55.764Z,73.00
2019-04-23T10:15:30.830Z,71.70
2019-04-23T10:17:56.293Z,71.60
2019-04-23T10:20:26.633Z,70.20
2019-04-23T10:22:56.677Z,71.90
2019-04-23T10:25:25.716Z,70.20
2019-04-23T10:28:00.548Z,68.30
2019-04-23T10:30:24.687Z,68.80
2019-04-23T10:32:55.722Z,69.00
2019-04-23T10:35:36.602Z,70.00
2019-04-23T10:38:03.741Z,69.40
2019-04-23T10:40:31.451Z,68.70
2019-04-23T10:42:56.510Z,68.50
2019-04-23T10:45:53.956Z,66.80
2019-04-23T10:49:01.954Z,67.20
2019-04-23T10:51:25.067Z,64.60
2019-04-23T10:54:03.420Z,65.10
2019-04-23T10:56:40.086Z,66.60
2019-04-23T10:58:54.564Z,65.00
2019-04-23T11:01:31.957Z,63.20
2019-04-23T11:04:32.963Z,63.30
2019-04-23T11:06:45.103Z,62.60
2019-04-23T11:09:36.549Z,60.90
2019-04-23T11:11:53.673Z,62.60
2019-04-23T11:14:25.316Z,63.20
2019-04-23T11:19:23.663Z,60.50
2019-04-23T11:21:52.346Z,59.90
2019-04-23T11:24:29.465Z,59.60
2019-04-23T11:26:52.829Z,58.40
2019-04-23T11:29:27.883Z,58.30
2019-04-23T11:32:19.331Z,58.90
2019-04-23T11:34:33.706Z,57.60
2019-04-23T11:39:28.844Z,57.80
2019-04-23T11:41:58.353Z,56.80
2019-04-23T11:44:26.944Z,58.00
2019-04-23T11:52:01.578Z,56.00
2019-04-23T11:54:27.698Z,55.80
2019-04-23T11:59:31.627Z,56.40
2019-04-23T12:04:50.428Z,54.10
2019-04-23T12:07:21.450Z,55.30
2019-04-23T12:09:47.028Z,54.20
2019-04-23T12:12:17.214Z,54.20
2019-04-23T12:14:47.644Z,54.70
2019-04-23T12:19:56.163Z,54.10
2019-04-23T12:22:33.337Z,53.10
2019-04-23T12:25:06.443Z,53.30
2019-04-23T12:32:43.072Z,52.00
2019-04-23T12:35:16.723Z,52.60
2019-04-23T12:42:59.055Z,51.10
2019-04-23T12:45:31.770Z,52.30
2019-04-23T12:47:59.875Z,51.40
2019-04-23T12:50:41.827Z,51.60
2019-04-23T12:52:51.182Z,51.40
2019-04-23T12:55:34.093Z,50.80
2019-04-23T13:00:27.082Z,50.60
2019-04-23T13:02:48.531Z,50.00
2019-04-23T13:05:31.743Z,50.30
2019-04-23T13:07:53.924Z,51.10
2019-04-23T13:13:11.647Z,50.30
2019-04-23T13:15:29.032Z,49.80
2019-04-23T13:20:32.096Z,49.00
2019-04-23T13:23:13.570Z,49.70
2019-04-23T13:25:43.929Z,50.20
2019-04-23T13:28:13.055Z,50.30
2019-04-23T13:33:21.160Z,49.90
2019-04-23T13:38:15.855Z,46.90
2019-04-23T13:40:46.395Z,48.00
2019-04-23T13:43:19.438Z,48.00
2019-04-23T13:45:59.369Z,47.90
2019-04-23T13:48:10.708Z,47.80
2019-04-23T13:53:32.974Z,47.20
2019-04-23T13:55:44.375Z,47.10
2019-04-23T13:58:22.603Z,46.70
2019-04-23T14:01:01.313Z,46.80
2019-04-23T14:03:30.808Z,47.30
2019-04-23T14:11:10.708Z,47.00
2019-04-23T14:13:47.967Z,47.30
2019-04-23T14:16:15.324Z,47.70
2019-04-23T14:21:14.104Z,46.90
2019-04-23T14:24:00.407Z,47.50
2019-04-23T14:28:41.899Z,46.60
2019-04-23T14:33:51.244Z,46.30
2019-04-23T14:36:17.784Z,47.10
2019-04-23T14:41:16.501Z,46.20
2019-04-23T14:48:46.525Z,46.10
2019-04-23T14:53:43.876Z,46.30
2019-04-23T14:56:19.060Z,46.70
2019-04-23T14:58:50.764Z,45.60
2019-04-23T15:03:55.518Z,45.40
2019-04-23T15:19:02.894Z,44.00
2019-04-23T15:24:00.180Z,44.00
2019-04-23T15:28:32.722Z,44.30
2019-04-23T15:31:28.362Z,44.50
2019-04-23T15:34:03.866Z,43.90
2019-04-23T15:39:08.384Z,44.20
2019-04-23T15:41:32.106Z,44.00
2019-04-23T15:44:04.558Z,43.70
2019-04-23T15:49:09.930Z,42.90
2019-04-23T15:54:00.799Z,43.70
2019-04-23T15:56:35.842Z,43.70
2019-04-23T16:01:29.258Z,43.10
2019-04-23T16:03:31.641Z,43.20
2019-04-23T16:06:00.339Z,43.60
2019-04-23T16:09:05.473Z,42.70
2019-04-23T16:14:13.446Z,41.60
2019-04-23T16:16:31.607Z,41.20
2019-04-23T16:19:17.202Z,41.60
2019-04-23T16:21:48.030Z,41.00
2019-04-23T16:24:13.418Z,41.30
2019-04-23T16:29:25.400Z,39.70
2019-04-23T16:32:04.062Z,39.80
2019-04-23T16:36:38.715Z,39.80
2019-04-23T16:39:10.522Z,40.00
2019-04-23T16:41:51.975Z,40.00
2019-04-23T16:44:20.026Z,40.30
2019-04-23T16:46:54.218Z,40.50
2019-04-23T16:49:20.016Z,39.50
2019-04-23T16:51:40.122Z,39.80
2019-04-23T16:54:19.060Z,39.60
2019-04-23T16:57:01.443Z,40.30
2019-04-23T17:01:54.034Z,39.80
2019-04-23T17:11:53.192Z,40.70
2019-04-23T17:16:44.400Z,40.70
2019-04-23T17:19:24.177Z,41.00
2019-04-23T17:21:53.284Z,41.20
2019-04-23T17:24:30.069Z,41.00
2019-04-23T17:26:54.327Z,40.90
2019-04-23T17:31:45.538Z,41.50
2019-04-23T17:34:30.697Z,41.90
2019-04-23T17:37:07.377Z,41.90
2019-04-23T17:39:36.421Z,42.60
2019-04-23T17:44:54.608Z,43.90
2019-04-23T17:47:14.143Z,43.70
2019-04-23T17:49:53.899Z,43.90
2019-04-23T17:52:21.878Z,44.10
2019-04-23T17:54:48.092Z,45.30
2019-04-23T18:00:12.038Z,46.20
2019-04-23T18:07:37.747Z,48.50
2019-04-23T18:14:50.839Z,49.90
2019-04-23T18:17:26.300Z,50.50
2019-04-23T18:19:59.832Z,51.20
2019-04-23T18:22:35.562Z,51.60
2019-04-23T18:25:13.489Z,52.00
2019-04-23T18:27:52.881Z,52.70
2019-04-23T18:30:37.151Z,53.00
2019-04-23T18:33:43.753Z,53.30
2019-04-23T18:38:16.042Z,54.10
2019-04-23T18:40:54.562Z,54.40
2019-04-23T18:43:21.072Z,54.80
2019-04-23T18:45:45.073Z,55.30
2019-04-23T18:51:03.711Z,56.30
2019-04-23T18:58:47.549Z,57.30
2019-04-23T19:01:05.073Z,57.40
2019-04-23T19:06:23.226Z,58.10
2019-04-23T19:09:10.432Z,58.50
2019-04-23T19:11:51.481Z,58.80
2019-04-23T19:14:24.557Z,59.20
2019-04-23T19:16:54.975Z,59.30
2019-04-23T19:22:07.064Z,60.00
2019-04-23T19:24:18.558Z,60.20
2019-04-23T19:27:05.706Z,60.60
2019-04-23T19:29:23.570Z,60.80
2019-04-23T19:34:40.718Z,61.10
2019-04-23T19:37:04.123Z,61.70
2019-04-23T19:39:36.603Z,61.80
2019-04-23T19:44:42.707Z,62.50
2019-04-23T19:47:29.578Z,62.50
2019-04-23T19:49:36.586Z,63.10
2019-04-23T19:52:36.006Z,63.20
2019-04-23T19:54:42.791Z,64.00
2019-04-23T19:57:28.084Z,64.40
2019-04-23T19:59:45.035Z,64.60
2019-04-23T20:09:50.434Z,65.80
2019-04-23T20:12:29.336Z,66.30
2019-04-23T20:14:47.343Z,66.20
2019-04-23T20:17:31.095Z,66.50
2019-04-23T20:19:45.334Z,67.10
2019-04-23T20:27:19.464Z,67.60
2019-04-23T20:34:54.278Z,68.30
2019-04-23T20:37:25.693Z,68.50
2019-04-23T20:40:08.708Z,68.70
2019-04-23T20:42:22.361Z,68.70
2019-04-23T20:45:06.096Z,69.30
2019-04-23T20:47:40.564Z,69.20
2019-04-23T20:52:33.930Z,69.50
2019-04-23T21:03:18.158Z,69.80
2019-04-23T21:20:36.567Z,71.20
2019-04-23T21:23:09.565Z,71.40
2019-04-23T21:25:34.985Z,71.30
2019-04-23T21:28:04.525Z,71.80
2019-04-23T21:30:58.512Z,72.20
2019-04-23T21:33:06.109Z,72.20
2019-04-23T21:36:12.593Z,72.50
2019-04-23T21:41:17.214Z,72.80
2019-04-23T21:49:03.362Z,73.10
2019-04-23T21:53:46.051Z,73.30
2019-04-23T21:56:15.259Z,73.50
2019-04-23T21:58:53.354Z,73.90
2019-04-23T22:06:31.555Z,74.50
2019-04-23T22:08:57.723Z,74.50
2019-04-23T22:14:05.487Z,74.60
2019-04-23T22:19:10.558Z,75.10
2019-04-23T22:21:33.463Z,75.20
2019-04-23T22:24:02.721Z,75.60
2019-04-23T22:26:34.444Z,75.90
2019-04-23T22:31:37.428Z,76.20
2019-04-23T22:34:19.616Z,76.50
2019-04-23T22:36:31.021Z,76.60
2019-04-23T22:39:04.098Z,76.60
2019-04-23T22:41:38.007Z,77.10
2019-04-23T22:46:48.363Z,77.60
2019-04-23T22:51:53.256Z,77.80
2019-04-23T22:56:44.022Z,78.60
2019-04-23T22:59:18.563Z,79.00
2019-04-23T23:01:59.096Z,79.10
2019-04-23T23:04:18.585Z,79.40
2019-04-23T23:11:49.759Z,79.30
2019-04-23T23:16:46.067Z,80.40
2019-04-23T23:21:59.506Z,80.70
2019-04-23T23:24:16.880Z,80.90
2019-04-23T23:26:49.460Z,81.00
2019-04-23T23:29:13.548Z,81.20
2019-04-23T23:31:57.813Z,81.70
2019-04-23T23:34:15.971Z,81.90
2019-04-23T23:36:54.315Z,82.20
2019-04-23T23:42:05.957Z,82.40
2019-04-23T23:44:33.336Z,82.70
2019-04-23T23:46:56.286Z,83.00
2019-04-23T23:49:20.507Z,83.30
2019-04-23T23:51:49.329Z,83.40
2019-04-23T23:57:01.780Z,84.10
2019-04-23T23:59:17.996Z,84.10
